createdAt,value
2024-01-15T00:00:45.589Z,73.50
2024-01-15T00:03:17.623Z,81.43
2024-01-15T00:06:10.319Z,79.65
2024-01-15T00:09:01.982Z,76.20
2024-01-15T00:11:52.221Z,74.47
2024-01-15T00:14:52.193Z,76.93
2024-01-15T00:17:44.513Z,77.85
2024-01-15T00:20:43.368Z,78.75
2024-01-15T00:23:36.257Z,84.15
2024-01-15T00:26:22.651Z,76.68
2024-01-15T00:29:13.348Z,72.28
2024-01-15T00:31:47.311Z,85.03
2024-01-15T00:34:36.713Z,78.05
2024-01-15T00:37:26.848Z,75.47
2024-01-15T00:40:11.014Z,71.07
2024-01-15T00:45:51.521Z,74.40
2024-01-15T00:48:43.318Z,78.97
2024-01-15T00:51:36.299Z,81.97
2024-01-15T00:54:28.198Z,77.35
2024-01-15T00:57:19.230Z,70.03
2024-01-15T01:00:09.863Z,65.15
2024-01-15T01:02:55.968Z,81.03
2024-01-15T01:05:56.402Z,87.07
2024-01-15T01:08:52.435Z,80.90
2024-01-15T01:11:52.442Z,81.22
2024-01-15T01:14:36.130Z,74.82
2024-01-15T01:17:18.561Z,84.20
2024-01-15T01:20:15.449Z,86.82
2024-01-15T01:23:11.167Z,72.90
2024-01-15T01:26:04.792Z,88.47
2024-01-15T01:28:58.173Z,85.15
2024-01-15T01:31:39.739Z,75.22
2024-01-15T01:34:16.152Z,83.32
2024-01-15T01:37:10.059Z,81.55
2024-01-15T01:40:01.933Z,83.82
2024-01-15T01:42:49.799Z,73.47
2024-01-15T01:45:52.686Z,89.32
2024-01-15T01:48:42.694Z,78.20
2024-01-15T01:51:13.826Z,86.90
2024-01-15T01:53:44.323Z,65.47
2024-01-15T01:56:33.084Z,80.70
2024-01-15T01:59:03.342Z,77.03
2024-01-15T02:01:36.352Z,72.35
2024-01-15T02:04:08.409Z,82.82
2024-01-15T02:06:43.337Z,65.28
2024-01-15T02:09:36.038Z,69.55
2024-01-15T02:12:30.253Z,76.30
2024-01-15T02:15:23.116Z,57.90
2024-01-15T02:18:30.454Z,81.25
2024-01-15T02:21:22.252Z,79.50
2024-01-15T02:24:14.998Z,80.50
2024-01-15T02:27:13.449Z,81.65
2024-01-15T02:29:52.470Z,76.95
2024-01-15T02:32:45.626Z,76.25
2024-01-15T02:35:28.825Z,75.03
2024-01-15T02:38:14.858Z,76.45
2024-01-15T02:41:06.280Z,80.65
2024-01-15T02:44:00.454Z,67.05
2024-01-15T02:47:06.317Z,75.18
2024-01-15T02:50:05.248Z,73.28
2024-01-15T02:53:06.324Z,62.72
2024-01-15T02:56:00.635Z,69.43
2024-01-15T02:59:02.841Z,62.25
2024-01-15T03:01:52.979Z,65.65
2024-01-15T03:04:48.665Z,60.72
2024-01-15T03:07:39.813Z,60.95
2024-01-15T03:10:32.156Z,66.65
2024-01-15T03:13:20.657Z,70.93
2024-01-15T03:16:15.158Z,55.72
2024-01-15T03:21:47.869Z,48.83
2024-01-15T03:24:44.012Z,63.17
2024-01-15T03:27:30.362Z,58.15
2024-01-15T03:30:16.915Z,50.20
2024-01-15T03:33:10.955Z,57.30
2024-01-15T03:35:59.593Z,63.03
2024-01-15T03:38:59.120Z,49.80
2024-01-15T03:41:53.652Z,57.58
2024-01-15T03:47:26.225Z,54.38
2024-01-15T03:49:56.346Z,61.03
2024-01-15T03:52:26.646Z,65.10
2024-01-15T03:54:57.039Z,77.32
2024-01-15T03:57:27.325Z,50.83
2024-01-15T03:59:58.304Z,57.45
2024-01-15T04:02:29.650Z,69.35
2024-01-15T04:05:01.436Z,56.40
2024-01-15T04:07:58.666Z,65.03
2024-01-15T04:10:50.420Z,70.97
2024-01-15T04:13:42.931Z,48.38
2024-01-15T04:16:39.628Z,74.15
2024-01-15T04:19:26.009Z,64.53
2024-01-15T04:22:22.200Z,60.70
2024-01-15T04:25:12.572Z,52.50
2024-01-15T04:27:59.003Z,57.67
2024-01-15T04:30:44.726Z,59.28
2024-01-15T04:33:36.607Z,54.00
2024-01-15T04:36:29.931Z,53.17
2024-01-15T04:39:25.208Z,52.92
2024-01-15T04:42:23.398Z,59.50
2024-01-15T04:45:14.499Z,52.92
2024-01-15T04:48:06.440Z,66.00
2024-01-15T04:50:55.964Z,67.05
2024-01-15T04:53:39.262Z,64.15
2024-01-15T04:56:30.155Z,67.07
2024-01-15T04:59:23.004Z,65.10
2024-01-15T05:02:14.763Z,63.60
2024-01-15T05:05:13.786Z,79.15
2024-01-15T05:08:08.758Z,69.65
2024-01-15T05:11:00.767Z,74.40
2024-01-15T05:13:56.012Z,69.82
2024-01-15T05:16:51.418Z,78.53
2024-01-15T05:19:52.008Z,80.35
2024-01-15T05:22:35.862Z,82.82
2024-01-15T05:25:11.744Z,74.50
2024-01-15T05:28:05.123Z,77.45
2024-01-15T05:30:59.738Z,78.18
2024-01-15T05:33:54.550Z,75.18
2024-01-15T05:36:45.323Z,91.63
2024-01-15T05:39:33.101Z,74.18
2024-01-15T05:42:26.377Z,75.22
2024-01-15T05:45:12.292Z,86.28
2024-01-15T05:48:01.260Z,74.85
2024-01-15T05:50:33.609Z,81.18
2024-01-15T05:53:02.196Z,89.88
2024-01-15T05:55:31.036Z,72.25
2024-01-15T05:58:02.007Z,83.03
2024-01-15T06:00:35.033Z,74.82
2024-01-15T06:03:07.576Z,80.97
2024-01-15T06:05:38.894Z,63.53
2024-01-15T06:08:30.075Z,75.70
2024-01-15T06:11:05.559Z,65.97
2024-01-15T06:13:35.130Z,62.97
2024-01-15T06:16:08.245Z,76.20
2024-01-15T06:18:40.466Z,61.65
2024-01-15T06:21:23.816Z,76.82
2024-01-15T06:24:14.703Z,71.90
2024-01-15T06:27:12.131Z,65.80
2024-01-15T06:30:04.580Z,71.07
2024-01-15T06:32:50.203Z,69.13
2024-01-15T06:35:56.093Z,75.43
2024-01-15T06:38:51.522Z,72.70
2024-01-15T06:41:36.789Z,71.45
2024-01-15T06:44:23.443Z,68.30
2024-01-15T06:47:13.507Z,71.40
2024-01-15T06:50:03.478Z,71.38
2024-01-15T06:53:00.932Z,67.07
2024-01-15T06:55:57.224Z,60.35
2024-01-15T06:58:39.706Z,54.92
2024-01-15T07:01:11.769Z,58.20
2024-01-15T07:03:40.367Z,60.10
2024-01-15T07:06:08.854Z,49.92
2024-01-15T07:08:38.555Z,59.53
2024-01-15T07:11:08.763Z,49.78
2024-01-15T07:13:57.953Z,60.80
2024-01-15T07:16:39.826Z,47.03
2024-01-15T07:19:28.333Z,36.65
2024-01-15T07:22:25.561Z,44.88
2024-01-15T07:25:23.614Z,48.92
2024-01-15T07:28:16.202Z,43.45
2024-01-15T07:31:09.386Z,37.17
2024-01-15T07:34:07.823Z,45.47
2024-01-15T07:36:53.814Z,44.80
2024-01-15T07:39:46.341Z,38.38
2024-01-15T07:42:44.779Z,34.97
2024-01-15T07:45:43.742Z,29.50
2024-01-15T07:48:37.712Z,31.20
2024-01-15T07:51:29.308Z,29.35
2024-01-15T07:54:27.313Z,27.33
2024-01-15T07:57:26.803Z,26.02
2024-01-15T08:00:17.139Z,23.83
2024-01-15T08:03:10.513Z,27.13
2024-01-15T08:06:03.859Z,25.23
2024-01-15T08:08:54.171Z,14.60
2024-01-15T08:11:39.100Z,19.73
2024-01-15T08:14:24.187Z,25.38
2024-01-15T08:17:23.805Z,18.13
2024-01-15T08:20:09.755Z,25.77
2024-01-15T08:23:03.629Z,20.65
2024-01-15T08:26:03.669Z,16.10
2024-01-15T08:29:02.842Z,21.67
2024-01-15T08:32:02.019Z,18.20
2024-01-15T08:34:37.526Z,14.95
2024-01-15T08:37:31.129Z,14.55
2024-01-15T08:40:15.266Z,18.33
2024-01-15T08:45:55.277Z,23.38
2024-01-15T08:48:46.124Z,22.95
2024-01-15T08:51:43.173Z,19.35
2024-01-15T08:54:25.329Z,14.15
2024-01-15T08:57:16.846Z,29.42
2024-01-15T09:00:04.706Z,25.17
2024-01-15T09:03:01.443Z,25.60
2024-01-15T09:05:46.960Z,39.80
2024-01-15T09:08:41.144Z,31.45
2024-01-15T09:11:43.302Z,32.95
2024-01-15T09:14:33.598Z,24.60
2024-01-15T09:17:28.795Z,34.47
2024-01-15T09:20:11.759Z,25.33
2024-01-15T09:22:59.168Z,29.30
2024-01-15T09:25:47.834Z,31.25
2024-01-15T09:28:36.480Z,37.20
2024-01-15T09:31:24.605Z,29.10
2024-01-15T09:34:15.645Z,27.10
2024-01-15T09:37:07.493Z,25.17
2024-01-15T09:39:57.704Z,23.30
2024-01-15T09:42:45.126Z,35.63
2024-01-15T09:45:36.504Z,29.20
2024-01-15T09:48:27.370Z,34.80
2024-01-15T09:51:16.280Z,30.08
2024-01-15T09:54:09.570Z,28.13
2024-01-15T09:57:03.390Z,28.70
2024-01-15T09:59:44.676Z,33.97
2024-01-15T10:02:34.201Z,34.53
2024-01-15T10:05:20.697Z,35.28
2024-01-15T10:08:11.848Z,39.13
2024-01-15T10:11:06.497Z,34.30
2024-01-15T10:13:57.756Z,40.58
2024-01-15T10:16:53.946Z,39.75
2024-01-15T10:19:50.448Z,46.22
2024-01-15T10:22:44.235Z,34.33
2024-01-15T10:25:31.966Z,35.42
2024-01-15T10:28:24.767Z,36.28
2024-01-15T10:31:18.992Z,34.33
2024-01-15T10:34:09.236Z,36.63
2024-01-15T10:37:03.705Z,44.28
2024-01-15T10:39:59.309Z,41.97
2024-01-15T10:42:56.893Z,36.00
2024-01-15T10:45:53.059Z,40.80
2024-01-15T10:48:46.138Z,40.78
2024-01-15T10:51:38.666Z,39.30
2024-01-15T10:54:33.702Z,34.53
2024-01-15T10:57:21.164Z,40.90
2024-01-15T11:00:14.326Z,38.25
2024-01-15T11:03:05.604Z,39.38
2024-01-15T11:05:56.474Z,46.58
2024-01-15T11:08:45.150Z,44.08
2024-01-15T11:11:29.340Z,44.42
2024-01-15T11:17:23.156Z,46.17
2024-01-15T11:20:15.256Z,45.28
2024-01-15T11:23:13.657Z,42.50
2024-01-15T11:26:16.749Z,42.80
2024-01-15T11:29:12.344Z,50.58
2024-01-15T11:32:12.705Z,46.75
2024-01-15T11:35:17.415Z,47.00
2024-01-15T11:38:26.048Z,51.65
2024-01-15T11:41:32.683Z,57.80
2024-01-15T11:44:23.025Z,47.45
2024-01-15T11:47:23.637Z,54.45
2024-01-15T11:50:32.742Z,50.47
2024-01-15T11:53:33.960Z,32.10
2024-01-15T11:56:34.921Z,42.13
2024-01-15T11:59:25.182Z,48.53
2024-01-15T12:02:16.039Z,48.08
2024-01-15T12:04:44.265Z,44.85
2024-01-15T12:07:37.445Z,44.75
2024-01-15T12:10:32.923Z,40.80
2024-01-15T12:13:32.268Z,40.88
2024-01-15T12:16:30.329Z,47.13
2024-01-15T12:19:20.673Z,39.75
2024-01-15T12:22:09.068Z,42.05
2024-01-15T12:25:03.449Z,35.72
2024-01-15T12:27:49.096Z,36.80
2024-01-15T12:30:47.210Z,30.45
2024-01-15T12:33:47.650Z,45.55
2024-01-15T12:36:46.431Z,27.30
2024-01-15T12:39:40.781Z,43.60
2024-01-15T12:42:36.047Z,39.63
2024-01-15T12:45:30.788Z,34.90
2024-01-15T12:48:23.495Z,30.50
2024-01-15T12:51:19.052Z,35.70
2024-01-15T12:54:14.558Z,37.10
2024-01-15T12:57:01.709Z,33.28
2024-01-15T12:59:46.298Z,43.53
2024-01-15T13:02:33.327Z,47.08
2024-01-15T13:05:28.720Z,48.30
2024-01-15T13:08:13.464Z,39.83
2024-01-15T13:11:08.119Z,41.03
2024-01-15T13:14:03.423Z,43.50
2024-01-15T13:17:01.586Z,35.92
2024-01-15T13:19:39.256Z,37.70
2024-01-15T13:22:36.581Z,42.85
2024-01-15T13:25:25.539Z,57.80
2024-01-15T13:28:20.149Z,39.00
2024-01-15T13:31:21.854Z,37.95
2024-01-15T13:34:19.048Z,39.60
2024-01-15T13:37:11.229Z,59.03
2024-01-15T13:40:04.390Z,36.10
2024-01-15T13:42:51.838Z,38.67
2024-01-15T13:45:46.195Z,46.20
2024-01-15T13:48:31.888Z,41.70
2024-01-15T13:51:15.212Z,48.10
2024-01-15T13:54:02.808Z,57.20
2024-01-15T13:56:55.291Z,50.80
2024-01-15T13:59:49.965Z,44.05
2024-01-15T14:02:21.712Z,41.00
2024-01-15T14:04:53.140Z,48.13
2024-01-15T14:07:24.504Z,44.40
2024-01-15T14:09:53.606Z,52.53
2024-01-15T14:12:37.015Z,44.03
2024-01-15T14:15:08.686Z,49.60
2024-01-15T14:17:39.287Z,54.95
2024-01-15T14:20:36.605Z,40.15
2024-01-15T14:23:15.644Z,55.13
2024-01-15T14:25:48.440Z,35.28
2024-01-15T14:28:19.527Z,52.35
2024-01-15T14:31:03.113Z,63.05
2024-01-15T14:33:40.292Z,61.65
2024-01-15T14:36:23.035Z,48.55
2024-01-15T14:39:06.611Z,56.92
2024-01-15T14:41:58.312Z,57.60
2024-01-15T14:44:53.733Z,48.67
2024-01-15T14:47:38.984Z,53.75
2024-01-15T14:50:25.543Z,47.95
2024-01-15T14:53:18.967Z,54.63
2024-01-15T14:56:25.546Z,52.83
2024-01-15T14:59:15.928Z,50.88
2024-01-15T15:02:12.449Z,49.65
2024-01-15T15:05:07.095Z,42.20
2024-01-15T15:07:55.600Z,54.10
2024-01-15T15:10:39.607Z,33.97
2024-01-15T15:13:38.168Z,41.38
2024-01-15T15:16:46.041Z,55.47
2024-01-15T15:19:34.978Z,54.60
2024-01-15T15:22:26.206Z,55.63
2024-01-15T15:25:22.448Z,60.40
2024-01-15T15:28:23.259Z,41.97
2024-01-15T15:31:17.646Z,48.03
2024-01-15T15:34:17.964Z,50.00
2024-01-15T15:37:14.569Z,48.65
2024-01-15T15:40:11.661Z,45.55
2024-01-15T15:43:06.660Z,41.17
2024-01-15T15:45:56.389Z,44.95
2024-01-15T15:48:47.253Z,53.17
2024-01-15T15:51:36.469Z,47.33
2024-01-15T15:54:29.126Z,56.15
2024-01-15T15:57:16.076Z,46.35
2024-01-15T16:00:03.169Z,49.88
2024-01-15T16:02:49.062Z,53.03
2024-01-15T16:05:45.766Z,61.70
2024-01-15T16:08:44.233Z,53.22
2024-01-15T16:11:54.372Z,48.33
2024-01-15T16:14:45.885Z,43.78
2024-01-15T16:23:16.204Z,47.28
2024-01-15T16:23:32.892Z,46.90
2024-01-15T16:24:13.388Z,45.55
2024-01-15T16:29:56.300Z,46.03
2024-01-15T16:32:32.432Z,49.72
2024-01-15T16:35:26.462Z,52.15
2024-01-15T16:38:12.796Z,39.85
2024-01-15T16:41:02.188Z,46.47
2024-01-15T16:43:50.806Z,46.53
2024-01-15T16:46:33.959Z,48.65
2024-01-15T16:49:25.721Z,47.80
2024-01-15T16:52:20.715Z,45.78
2024-01-15T16:55:14.245Z,52.05
2024-01-15T16:57:43.130Z,75.20
2024-01-15T17:00:40.074Z,56.92
2024-01-15T17:03:11.043Z,52.75
2024-01-15T17:06:02.940Z,54.97
2024-01-15T17:08:48.623Z,61.33
2024-01-15T17:11:44.620Z,53.35
2024-01-15T17:14:31.798Z,56.47
2024-01-15T17:17:27.200Z,56.60
2024-01-15T17:20:15.105Z,52.70
2024-01-15T17:23:07.061Z,59.13
2024-01-15T17:25:40.112Z,53.45
2024-01-15T17:31:46.712Z,51.20
2024-01-15T17:34:46.654Z,54.65
2024-01-15T17:37:35.065Z,48.67
2024-01-15T17:40:28.629Z,38.42
2024-01-15T17:43:17.323Z,49.80
2024-01-15T17:46:08.081Z,52.03
2024-01-15T17:48:49.649Z,54.35
2024-01-15T17:51:45.166Z,63.17
2024-01-15T17:54:32.051Z,57.45
2024-01-15T17:57:16.730Z,66.57
2024-01-15T18:00:04.883Z,77.75
2024-01-15T18:02:52.357Z,87.18
2024-01-15T18:05:44.624Z,67.22
2024-01-15T18:08:33.551Z,59.47
2024-01-15T18:11:16.928Z,68.50
2024-01-15T18:14:12.855Z,71.30
2024-01-15T18:17:09.007Z,68.22
2024-01-15T18:20:03.788Z,73.05
2024-01-15T18:22:51.467Z,60.22
2024-01-15T18:25:55.999Z,60.45
2024-01-15T18:28:39.088Z,54.33
2024-01-15T18:31:37.103Z,57.45
2024-01-15T18:34:26.083Z,59.38
2024-01-15T18:37:17.586Z,61.63
2024-01-15T18:40:06.166Z,57.40
2024-01-15T18:42:57.996Z,60.58
2024-01-15T18:45:49.445Z,58.53
2024-01-15T18:48:21.417Z,60.15
2024-01-15T18:51:02.900Z,54.10
2024-01-15T18:53:54.323Z,63.38
2024-01-15T18:56:45.753Z,58.03
2024-01-15T18:59:46.941Z,58.20
2024-01-15T19:02:17.363Z,49.17
2024-01-15T19:05:15.646Z,50.67
2024-01-15T19:07:57.128Z,62.30
2024-01-15T19:10:48.834Z,55.00
2024-01-15T19:13:44.044Z,56.28
2024-01-15T19:16:45.458Z,55.80
2024-01-15T19:19:38.374Z,59.33
2024-01-15T19:22:37.145Z,51.65
2024-01-15T19:25:35.893Z,53.40
2024-01-15T19:28:32.297Z,52.00
2024-01-15T19:31:26.272Z,57.42
2024-01-15T19:34:26.325Z,57.08
2024-01-15T19:37:21.713Z,56.20
2024-01-15T19:40:16.501Z,50.90
2024-01-15T19:43:09.139Z,54.50
2024-01-15T19:45:54.170Z,50.15
2024-01-15T19:48:47.844Z,53.40
2024-01-15T19:51:46.224Z,51.08
2024-01-15T19:54:40.790Z,51.97
2024-01-15T20:00:18.548Z,50.85
2024-01-15T20:03:13.310Z,51.33
2024-01-15T20:06:06.511Z,58.45
2024-01-15T20:09:00.523Z,53.00
2024-01-15T20:11:56.459Z,51.22
2024-01-15T20:14:53.574Z,51.28
2024-01-15T20:17:46.177Z,44.92
2024-01-15T20:20:36.777Z,50.28
2024-01-15T20:23:36.825Z,45.47
2024-01-15T20:26:32.507Z,51.63
2024-01-15T20:29:26.549Z,51.20
2024-01-15T20:32:18.827Z,54.38
2024-01-15T20:35:11.630Z,49.35
2024-01-15T20:38:05.496Z,48.22
2024-01-15T20:40:56.115Z,53.40
2024-01-15T20:43:52.316Z,50.30
2024-01-15T20:46:48.169Z,44.70
2024-01-15T20:49:36.720Z,51.95
2024-01-15T20:52:25.668Z,48.55
2024-01-15T20:55:17.226Z,51.83
2024-01-15T20:58:13.407Z,51.50
2024-01-15T21:01:12.766Z,48.17
2024-01-15T21:03:56.458Z,53.88
2024-01-15T21:06:46.636Z,47.85
2024-01-15T21:09:28.819Z,44.42
2024-01-15T21:12:26.705Z,40.55
2024-01-15T21:15:16.355Z,38.03
2024-01-15T21:17:56.835Z,38.83
2024-01-15T21:20:42.466Z,41.83
2024-01-15T21:23:23.362Z,40.90
2024-01-15T21:26:20.162Z,44.15
2024-01-15T21:29:15.184Z,36.40
2024-01-15T21:32:06.382Z,36.83
2024-01-15T21:35:01.733Z,40.38
2024-01-15T21:37:49.889Z,35.40
2024-01-15T21:40:42.045Z,27.85
2024-01-15T21:43:36.788Z,32.38
2024-01-15T21:46:25.747Z,28.77
2024-01-15T21:49:16.592Z,30.48
2024-01-15T21:52:19.131Z,29.35
2024-01-15T21:55:13.392Z,25.45
2024-01-15T21:58:15.717Z,27.70
2024-01-15T22:01:00.474Z,29.98
2024-01-15T22:03:56.958Z,26.85
2024-01-15T22:06:42.769Z,22.58
2024-01-15T22:09:49.916Z,22.50
2024-01-15T22:12:18.423Z,21.27
2024-01-15T22:15:06.729Z,30.05
2024-01-15T22:17:56.855Z,22.52
2024-01-15T22:20:46.302Z,24.83
2024-01-15T22:23:39.373Z,17.38
2024-01-15T22:26:39.062Z,22.55
2024-01-15T22:29:23.771Z,26.05
2024-01-15T22:32:07.181Z,21.63
2024-01-15T22:35:04.987Z,19.67
2024-01-15T22:38:00.462Z,19.52
2024-01-15T22:40:56.697Z,18.27
2024-01-15T22:43:53.469Z,15.73
2024-01-15T22:46:40.880Z,18.25
2024-01-15T22:49:32.920Z,22.17
2024-01-15T22:52:24.065Z,11.70
2024-01-15T22:55:24.459Z,17.85
2024-01-15T22:58:20.509Z,17.35
2024-01-15T23:01:15.278Z,17.30
2024-01-15T23:04:01.254Z,15.43
2024-01-15T23:06:38.778Z,18.98
2024-01-15T23:09:35.404Z,20.27
2024-01-15T23:12:05.277Z,16.42
2024-01-15T23:15:00.006Z,17.02
2024-01-15T23:17:51.687Z,15.30
2024-01-15T23:20:47.813Z,22.83
2024-01-15T23:23:42.202Z,15.23
2024-01-15T23:26:25.878Z,17.35
2024-01-15T23:29:28.926Z,17.83
2024-01-15T23:32:20.863Z,10.43
2024-01-15T23:35:16.071Z,15.43
2024-01-15T23:38:14.666Z,14.82
2024-01-15T23:41:06.779Z,12.98
2024-01-15T23:43:55.200Z,13.80
2024-01-15T23:46:40.829Z,12.27
2024-01-15T23:49:35.899Z,11.35
2024-01-15T23:52:25.002Z,10.77
2024-01-15T23:55:16.306Z,14.38
2024-01-15T23:58:02.423Z,10.73
